• Join FlightAware (Why Join?)
  • Login
  • US Flag 
05:22AM EDT


 

Airport Tracker/Info


-or-


 

Live Flight TrackerFlight Track Log ✈ N320WD ✈ 15-Oct-2013 ✈ 5W8 - KORF

Flight Track Log - Related Links

Times and Time Zones

All times are in EDT time to prevent confusion due to time zone crossing. See the N320WD flight status page for this flight to view local times or setup timezone preferences in your user account.

Time Position Orientation Groundspeed Altitude Reporting Facility
EDT Latitude Longitude Course Direction KTS MPH feet Rate Location/Type
04:48PM 35.7572 -79.4083 56° Northeast 153 176 3,500  Level Washington Center
04:49PM 35.7750 -79.3708 60° Northeast 159 183 4,300 720 Climbing Washington Center
04:50PM 35.7928 -79.3383 56° Northeast 142 163 4,800 420 Climbing Washington Center
04:51PM 35.8150 -79.2933 59° Northeast 147 169 5,100 120 Climbing Washington Center
04:52PM 35.8375 -79.2456 60° Northeast 168 193 5,100  Level Washington Center
04:53PM 35.7937 -79.2680 56° Northeast  Level Estimated
04:53PM 35.8703 -79.1933 52° Northeast 168 193 5,100  Level Washington Center
04:54PM 35.8947 -79.1433 59° Northeast 164 189 5,000  Descending Washington Center
04:55PM 35.9167 -79.1031 56° Northeast 159 183 5,100  Climbing Washington Center
04:56PM 35.9392 -79.0553 60° Northeast 160 184 5,100 -60 Level Washington Center
04:57PM 35.9633 -79.0078 58° Northeast 163 188 5,000  Descending Washington Center
04:58PM 35.9897 -78.9653 52° Northeast 162 186 5,100  Climbing Washington Center
04:59PM 36.0139 -78.9147 59° Northeast 164 189 5,000  Descending Washington Center
05:00PM 36.0381 -78.8697 56° Northeast 161 185 5,100  Climbing Washington Center
05:01PM 36.0625 -78.8167 60° Northeast 171 197 5,100 -60 Level Washington Center
05:02PM 36.0828 -78.7611 66° East 169 194 5,000 120 Descending Washington Center
05:03PM 36.1031 -78.7103 64° Northeast 168 193 5,400 480 Climbing Washington Center
05:04PM 36.1186 -78.6672 66° East 135 155 6,000 540 Climbing Washington Center
05:05PM 36.1367 -78.6167 66° East 134 154 6,600 480 Climbing Washington Center
05:06PM 36.1522 -78.5761 65° Northeast 135 155 7,100 300 Climbing Washington Center
05:07PM 36.1633 -78.5456 66° East 137 158 7,100 -120 Level Washington Center
05:07PM 36.1681 -78.5303 69° East 148 170 7,000 -420 Descending Washington Center
05:08PM 36.1883 -78.4719 67° East 180 207 6,500 -540 Descending Washington Center
05:09PM 36.1997 -78.4286 72° East 181 208 6,100 -660 Descending Washington Center
05:10PM 36.2181 -78.3622 71° East 197 227 5,400 -540 Descending Washington Center
05:11PM 36.2339 -78.3061 71° East 192 221 5,100 -240 Descending Washington Center
05:12PM 36.2478 -78.2447 74° East 177 204 5,000  Descending Washington Center
05:13PM 36.2633 -78.1964 68° East 167 192 5,100  Climbing Washington Center
05:14PM 36.2792 -78.1378 71° East 162 186 5,100  Level Washington Center
05:15PM 36.2928 -78.0867 72° East 162 186 5,100  Level Washington Center
05:16PM 36.3044 -78.0328 75° East 162 186 5,100 -60 Level Washington Center
05:17PM 36.3222 -77.9792 68° East 162 186 5,000 -60 Descending Washington Center
05:18PM 36.3378 -77.9256 70° East 162 186 5,000 -60 Level Washington Center
05:19PM 36.3494 -77.8692 76° East 162 186 4,900  Descending Washington Center
05:20PM 36.3669 -77.8156 68° East 162 186 5,100 60 Climbing Washington Center
05:21PM 36.3783 -77.7617 75° East 162 186 5,100 -60 Level Washington Center
05:22PM 36.3942 -77.7053 71° East 162 186 5,000  Descending Washington Center
05:23PM 36.4075 -77.6514 73° East 162 186 5,100  Climbing Washington Center
05:24PM 36.4231 -77.5978 70° East 167 192 5,100  Level Washington Center
05:25PM 36.4386 -77.5308 74° East 167 192 5,100 -60 Level Washington Center
05:26PM 36.4564 -77.4797 67° East 167 192 5,000  Descending Washington Center
05:27PM 36.4739 -77.4258 68° East 167 192 5,200 60 Climbing Washington Center
05:28PM 36.4933 -77.3722 66° East 167 192 5,200  Level Washington Center
05:29PM 36.5108 -77.3156 69° East 167 192 5,300 -60 Climbing Washington Center
05:30PM 36.5281 -77.2747 62° Northeast 167 192 5,100 -120 Descending Washington Center
05:30PM 36.5303 -77.2644 75° East 167 192 5,200  Climbing Washington Center
05:30PM 36.5325 -77.2567 70° East 167 192 5,100  Descending Washington Center
05:31PM 36.5478 -77.2181 64° Northeast 167 192 5,200  Climbing Washington Center
05:31PM 36.5522 -77.2028 70° East 169 194 5,100 -120 Descending Washington Center
05:32PM 36.5650 -77.1642 68° East 167 192 5,100 -120 Level Washington Center
05:32PM 36.5694 -77.1489 70° East 169 194 5,000 -120 Descending Washington Center
05:33PM 36.5844 -77.1103 64° Northeast 167 192 5,000 60 Level Washington Center
05:33PM 36.5889 -77.0975 67° East 170 196 5,100 60 Climbing Washington Center
05:34PM 36.6019 -77.0589 67° East 172 198 5,100  Level Washington Center
05:34PM 36.6061 -77.0461 68° East 163 188 5,100  Level Washington Center
05:35PM 36.6192 -77.0075 67° East 167 192 5,100 -120 Level Washington Center
05:35PM 36.6214 -76.9947 78° East 161 185 5,000 -540 Descending Washington Center
05:36PM 36.6303 -76.9481 77° East 167 192 4,600 -540 Descending Washington Center
05:36PM 36.6347 -76.9250 76° East 178 205 4,400 -540 Descending Washington Center
05:37PM 36.6414 -76.8889 77° East 167 192 4,100 -300 Descending Washington Center
05:37PM 36.6458 -76.8681 75° East 178 205 4,100 -120 Level Washington Center
05:38PM 36.6525 -76.8347 76° East 167 192 4,000 -240 Descending Washington Center
05:38PM 36.6547 -76.8139 82° East 164 189 3,900  Descending Washington Center
05:39PM 36.6636 -76.7728 75° East 162 186 4,000 60 Climbing Washington Center
05:39PM 36.6656 -76.7622 77° East 162 186 4,000 60 Level Washington Center
05:40PM 36.6767 -76.7081 76° East 153 176 4,100  Climbing Washington Center
05:41PM 36.6856 -76.6564 78° East 159 183 4,100  Level Washington Center
05:42PM 36.6942 -76.5997 79° East 158 182 4,100  Level Washington Center
05:44PM 36.7053 -76.5428 76° East 158 182 4,100  Level Washington Center
05:45PM 36.7161 -76.4883 76° East 158 182 4,100 -120 Level Washington Center
05:46PM 36.7247 -76.4342 79° East 160 184 3,900 -480 Descending Washington Center
05:47PM 36.7356 -76.3772 77° East 173 199 3,200 -780 Descending Washington Center
05:48PM 36.7631 -76.3283 55° Northeast 180 207 2,400 -840 Descending Washington Center
05:48PM 36.7967 -76.2975 36° Northeast 156 180 1,700 -360 Descending Washington Center
05:50PM 36.8258 -76.2692 38° Northeast 107 123 1,700 -300 Level Washington Center
05:51PM 36.8511 -76.2486 33° Northeast 100 115 1,100 -600 Descending Washington Center
05:52PM 36.8700 -76.2281 41° Northeast 96 110 600 -540 Descending Washington Center